Time;durP1;ratioP1;P1;durP2;ratioP2;P2;SDS_P1;SDS_P2;PMS_P1;PMS_P2;Temp;Humidity;BMP_temperature;BMP_pressure;BME280_temperature;BME280_humidity;BME280_pressure;Samples;Min_cycle;Max_cycle;Signal;HPM_P1;HPM_P2
2022/05/13 00:00:12;;;;;;;;;;;;;;;14.01;56.70;100452.88;105949;1270;22504;-53
2022/05/13 00:03:02;;;;;;;;;;;;;;;13.97;56.26;100450.99;105820;1272;25326;-49
2022/05/13 00:05:32;;;;;;;;;;;;;;;13.95;56.69;100446.13;105901;1272;25240;-49
2022/05/13 00:08:01;;;;;;;;;;;;;;;13.92;56.75;100445.50;105790;1272;22528;-49
2022/05/13 00:10:31;;;;;;;;;;;;;;;13.90;57.56;100451.36;105986;1271;25309;-49
2022/05/13 00:13:01;;;;;;;;;;;;;;;13.87;57.40;100450.04;105835;1271;25188;-50
2022/05/13 00:15:31;;;;;;;;;;;;;;;13.86;57.39;100453.05;105958;1271;24299;-50
2022/05/13 00:18:01;;;;;;;;;;;;;;;13.85;57.27;100451.97;105686;1271;25425;-52
2022/05/13 00:20:31;;;;;;;;;;;;;;;13.85;57.18;100447.58;105823;1271;25255;-49
2022/05/13 00:23:01;;;;;;;;;;;;;;;13.84;57.27;100448.45;106071;1271;25373;-48
2022/05/13 00:25:31;;;;;;;;;;;;;;;13.83;57.08;100443.78;106033;1271;25523;-48
2022/05/13 00:28:02;;;;;;;;;;;;;;;13.82;57.06;100440.93;105905;1272;22652;-48
2022/05/13 00:30:33;;;;;;;;;;;;;;;13.81;56.83;100437.39;105815;1272;22516;-51
2022/05/13 00:33:03;;;;;;;;;;;;;;;13.80;57.24;100433.36;106144;1271;25373;-51
2022/05/13 00:35:32;;;;;;;;;;;;;;;13.78;57.05;100429.36;106067;1271;22573;-52
2022/05/13 00:38:02;;;;;;;;;;;;;;;13.77;57.15;100431.80;106042;1270;22595;-52
2022/05/13 00:40:32;;;;;;;;;;;;;;;13.75;57.26;100434.73;105870;1272;23655;-49
2022/05/13 00:43:03;;;;;;;;;;;;;;;13.72;57.13;100433.23;106160;1270;22728;-51
2022/05/13 00:45:33;;;;;;;;;;;;;;;13.69;57.07;100424.98;105919;1271;22589;-52
2022/05/13 00:48:03;;;;;;;;;;;;;;;13.66;57.31;100426.39;106267;1271;24260;-49
2022/05/13 00:50:34;;;;;;;;;;;;;;;13.63;57.11;100429.16;105910;1272;25407;-51
2022/05/13 00:53:04;;;;;;;;;;;;;;;13.59;57.55;100426.01;105802;1272;22531;-51
2022/05/13 00:55:35;;;;;;;;;;;;;;;13.54;57.91;100431.17;105772;1272;22525;-54
2022/05/13 00:58:07;;;;;;;;;;;;;;;13.46;57.81;100431.65;106545;1271;26599;-51
2022/05/13 01:00:37;;;;;;;;;;;;;;;13.41;57.80;100426.33;105947;1272;23914;-49
2022/05/13 01:03:08;;;;;;;;;;;;;;;13.36;58.00;100427.81;106004;1271;24310;-49
2022/05/13 01:05:39;;;;;;;;;;;;;;;13.29;57.91;100424.80;106207;1271;22544;-49
2022/05/13 01:08:11;;;;;;;;;;;;;;;13.24;57.69;100420.09;105831;1271;22569;-51
2022/05/13 01:10:42;;;;;;;;;;;;;;;13.21;57.76;100416.27;105799;1272;22510;-48
2022/05/13 01:13:14;;;;;;;;;;;;;;;13.19;58.02;100417.33;105808;1273;22518;-49
2022/05/13 01:15:47;;;;;;;;;;;;;;;13.13;58.24;100419.19;105862;1272;24211;-51
2022/05/13 01:18:26;;;;;;;;;;;;;;;13.04;58.70;100416.09;105755;1272;25341;-49
2022/05/13 01:20:56;;;;;;;;;;;;;;;12.94;58.89;100413.10;105924;1272;22636;-52
2022/05/13 01:23:27;;;;;;;;;;;;;;;12.88;58.74;100411.08;106025;1272;22679;-48
2022/05/13 01:25:58;;;;;;;;;;;;;;;12.85;58.38;100408.23;106142;1270;25691;-50
2022/05/13 01:28:30;;;;;;;;;;;;;;;12.84;58.96;100414.28;105924;1271;23960;-50
2022/05/13 01:31:01;;;;;;;;;;;;;;;12.77;59.21;100412.89;106018;1273;22526;-51
2022/05/13 01:33:31;;;;;;;;;;;;;;;12.71;59.26;100412.30;106074;1271;22829;-51
2022/05/13 01:36:03;;;;;;;;;;;;;;;12.69;58.97;100412.10;106070;1271;26463;-52
2022/05/13 01:38:36;;;;;;;;;;;;;;;12.68;58.99;100404.40;105977;1272;22527;-51
2022/05/13 01:41:08;;;;;;;;;;;;;;;12.67;58.95;100399.96;106074;1270;24221;-50
2022/05/13 01:43:38;;;;;;;;;;;;;;;12.66;59.35;100400.45;105855;1271;22979;-50
2022/05/13 01:46:08;;;;;;;;;;;;;;;12.59;60.16;100399.66;105887;1273;24258;-52
2022/05/13 01:48:39;;;;;;;;;;;;;;;12.51;60.50;100398.93;105952;1271;22685;-50
2022/05/13 01:51:09;;;;;;;;;;;;;;;12.44;60.73;100400.77;105937;1271;22503;-51
2022/05/13 01:53:39;;;;;;;;;;;;;;;12.39;60.79;100398.36;105938;1271;24047;-49
2022/05/13 01:56:08;;;;;;;;;;;;;;;12.36;60.65;100391.64;105990;1271;24290;-49
2022/05/13 01:58:38;;;;;;;;;;;;;;;12.35;60.42;100392.41;105807;1271;25666;-52
2022/05/13 02:01:09;;;;;;;;;;;;;;;12.35;60.27;100388.09;105792;1270;25281;-50
2022/05/13 02:03:48;;;;;;;;;;;;;;;12.35;60.19;100387.92;105899;1271;22643;-51
2022/05/13 02:06:18;;;;;;;;;;;;;;;12.35;60.45;100389.05;105771;1271;22576;-51
2022/05/13 02:08:48;;;;;;;;;;;;;;;12.33;60.88;100386.30;105946;1272;23899;-49
2022/05/13 02:11:19;;;;;;;;;;;;;;;12.29;61.09;100391.40;105973;1271;22550;-49
2022/05/13 02:13:49;;;;;;;;;;;;;;;12.24;61.45;100397.06;106007;1270;24381;-50
2022/05/13 02:16:19;;;;;;;;;;;;;;;12.17;61.38;100401.05;105759;1271;24289;-50
2022/05/13 02:18:49;;;;;;;;;;;;;;;12.15;61.40;100393.73;106018;1272;25349;-51
2022/05/13 02:21:19;;;;;;;;;;;;;;;12.14;61.19;100393.21;106071;1271;25537;-48
2022/05/13 02:23:48;;;;;;;;;;;;;;;12.13;61.12;100384.45;105764;1271;22545;-51
2022/05/13 02:26:18;;;;;;;;;;;;;;;12.13;61.16;100385.52;105720;1271;24382;-49
2022/05/13 02:28:48;;;;;;;;;;;;;;;12.11;61.61;100387.21;105658;1271;25248;-50
2022/05/13 02:31:18;;;;;;;;;;;;;;;12.05;61.60;100391.65;105783;1271;22529;-50
2022/05/13 02:36:14;;;;;;;;;;;;;;;12.02;61.46;100386.33;106195;1261;22508;-62
2022/05/13 02:38:44;;;;;;;;;;;;;;;12.01;61.79;100383.72;105676;1271;23076;-63
2022/05/13 02:41:14;;;;;;;;;;;;;;;11.95;62.68;100380.92;105835;1271;22529;-62
2022/05/13 02:43:45;;;;;;;;;;;;;;;11.85;63.04;100383.82;105413;1271;490320;-62
2022/05/13 02:46:17;;;;;;;;;;;;;;;11.81;62.97;100380.33;105659;1271;24228;-61
2022/05/13 02:48:47;;;;;;;;;;;;;;;11.80;62.87;100378.79;105784;1271;25297;-62
2022/05/13 02:51:18;;;;;;;;;;;;;;;11.77;63.06;100379.70;105902;1271;24373;-61
2022/05/13 02:53:47;;;;;;;;;;;;;;;11.72;62.98;100378.81;105843;1272;25810;-62
2022/05/13 02:56:17;;;;;;;;;;;;;;;11.69;63.01;100380.75;105736;1271;22607;-63
2022/05/13 02:58:48;;;;;;;;;;;;;;;11.65;63.14;100378.29;105991;1272;25246;-62
2022/05/13 03:01:19;;;;;;;;;;;;;;;11.64;62.90;100376.42;105970;1271;25235;-60
2022/05/13 03:03:50;;;;;;;;;;;;;;;11.66;62.91;100380.11;105936;1271;25301;-62
2022/05/13 03:06:21;;;;;;;;;;;;;;;11.63;63.41;100382.45;105864;1271;24212;-62
2022/05/13 03:08:51;;;;;;;;;;;;;;;11.60;63.10;100373.61;105912;1271;22538;-62
2022/05/13 03:11:21;;;;;;;;;;;;;;;11.62;62.97;100373.59;105847;1271;24416;-62
2022/05/13 03:13:52;;;;;;;;;;;;;;;11.64;62.85;100377.02;105977;1271;22530;-62
2022/05/13 03:16:23;;;;;;;;;;;;;;;11.64;62.72;100377.55;105773;1272;22534;-62
2022/05/13 03:18:54;;;;;;;;;;;;;;;11.66;62.90;100368.98;105954;1272;24400;-62
2022/05/13 03:21:24;;;;;;;;;;;;;;;11.66;63.02;100370.42;106011;1271;22506;-61
2022/05/13 03:23:54;;;;;;;;;;;;;;;11.67;62.91;100369.11;105692;1272;22671;-62
2022/05/13 03:26:24;;;;;;;;;;;;;;;11.68;62.83;100367.83;105706;1272;22697;-61
2022/05/13 03:28:54;;;;;;;;;;;;;;;11.70;62.88;100373.58;105814;1272;22705;-62
2022/05/13 03:31:24;;;;;;;;;;;;;;;11.69;63.79;100370.44;105758;1271;22520;-61
2022/05/13 03:33:55;;;;;;;;;;;;;;;11.67;63.60;100374.00;106030;1271;25356;-61
2022/05/13 03:36:25;;;;;;;;;;;;;;;11.66;63.58;100372.59;105800;1271;22518;-62
2022/05/13 03:38:58;;;;;;;;;;;;;;;11.65;63.94;100369.92;105799;1271;23404;-61
2022/05/13 03:41:27;;;;;;;;;;;;;;;11.62;64.31;100369.33;105851;1272;24503;-61
2022/05/13 03:43:57;;;;;;;;;;;;;;;11.60;63.85;100365.78;105942;1272;22684;-63
2022/05/13 03:46:27;;;;;;;;;;;;;;;11.61;64.14;100368.19;105656;1271;23410;-62
2022/05/13 03:48:57;;;;;;;;;;;;;;;11.63;64.56;100361.61;105895;1271;25244;-62
2022/05/13 03:51:30;;;;;;;;;;;;;;;11.63;64.83;100367.76;105609;1272;25376;-62
2022/05/13 03:53:59;;;;;;;;;;;;;;;11.65;64.39;100367.03;105898;1271;25245;-62
2022/05/13 03:56:29;;;;;;;;;;;;;;;11.68;65.11;100370.92;105716;1271;23627;-62
2022/05/13 03:58:59;;;;;;;;;;;;;;;11.68;65.11;100369.54;105657;1271;22657;-63
2022/05/13 04:01:29;;;;;;;;;;;;;;;11.68;65.70;100371.84;105759;1272;22532;-63
2022/05/13 04:04:00;;;;;;;;;;;;;;;11.69;66.05;100370.72;105675;1272;22686;-63
2022/05/13 04:09:17;;;;;;;;;;;;;;;11.69;66.22;100378.91;105745;1271;24385;-63
2022/05/13 04:17:20;;;;;;;;;;;;;;;11.76;66.88;100377.92;105514;1271;25397;-61
2022/05/13 04:19:49;;;;;;;;;;;;;;;11.78;67.04;100380.86;105824;1272;25331;-62
2022/05/13 04:22:19;;;;;;;;;;;;;;;11.79;67.20;100384.52;105568;1271;22550;-63
2022/05/13 04:24:49;;;;;;;;;;;;;;;11.81;66.63;100380.23;105778;1271;24220;-64
2022/05/13 04:27:19;;;;;;;;;;;;;;;11.85;66.93;100382.29;105613;1272;23397;-62
2022/05/13 04:29:49;;;;;;;;;;;;;;;11.90;67.20;100381.23;105771;1271;23036;-62
2022/05/13 04:32:19;;;;;;;;;;;;;;;11.95;67.71;100385.19;105622;1271;22561;-62
2022/05/13 04:34:49;;;;;;;;;;;;;;;12.00;67.34;100384.52;105756;1271;25311;-62
2022/05/13 04:37:19;;;;;;;;;;;;;;;12.05;67.03;100386.92;105563;1271;25510;-62
2022/05/13 04:39:52;;;;;;;;;;;;;;;12.11;67.38;100386.96;105795;1272;22554;-61
2022/05/13 04:45:11;;;;;;;;;;;;;;;12.24;68.04;100395.64;105818;1271;24720;-63
2022/05/13 04:50:29;;;;;;;;;;;;;;;12.29;68.36;100395.41;105627;1271;22791;-63
2022/05/13 04:52:58;;;;;;;;;;;;;;;12.29;68.36;100396.52;105790;1271;25313;-63
2022/05/13 04:55:28;;;;;;;;;;;;;;;12.32;68.48;100398.62;105892;1272;22631;-62
2022/05/13 04:57:58;;;;;;;;;;;;;;;12.36;68.01;100398.77;105792;1271;25177;-63
2022/05/13 05:00:28;;;;;;;;;;;;;;;12.43;68.42;100402.73;105976;1271;24356;-62
2022/05/13 05:02:58;;;;;;;;;;;;;;;12.48;68.25;100396.91;105904;1272;24233;-62
2022/05/13 05:05:30;;;;;;;;;;;;;;;12.54;68.38;100394.35;105752;1272;22544;-62
2022/05/13 05:07:59;;;;;;;;;;;;;;;12.59;68.39;100394.05;109696;1271;22904;-62
2022/05/13 05:10:29;;;;;;;;;;;;;;;12.64;68.27;100385.77;109717;1271;22459;-63
2022/05/13 05:12:59;;;;;;;;;;;;;;;12.71;68.12;100386.23;109659;1271;22391;-63
2022/05/13 05:15:29;;;;;;;;;;;;;;;12.78;68.93;100389.81;109245;1271;25245;-64
2022/05/13 05:17:59;;;;;;;;;;;;;;;12.82;69.46;100389.41;105809;1271;25342;-62
2022/05/13 05:20:29;;;;;;;;;;;;;;;12.83;69.23;100389.27;106025;1272;22530;-63
2022/05/13 05:22:59;;;;;;;;;;;;;;;12.87;68.98;100383.30;105858;1271;24261;-62
2022/05/13 05:25:29;;;;;;;;;;;;;;;12.94;69.19;100382.98;105666;1271;23025;-62
2022/05/13 05:27:59;;;;;;;;;;;;;;;13.00;69.50;100386.42;105652;1271;22554;-63
2022/05/13 05:30:29;;;;;;;;;;;;;;;13.07;69.46;100390.70;105749;1271;25256;-63
2022/05/13 05:32:58;;;;;;;;;;;;;;;13.13;69.09;100391.23;105957;1271;22534;-63
2022/05/13 05:35:29;;;;;;;;;;;;;;;13.19;68.91;100387.52;106125;1271;25253;-62
2022/05/13 05:37:59;;;;;;;;;;;;;;;13.25;68.77;100387.23;106094;1273;22622;-63
2022/05/13 05:40:29;;;;;;;;;;;;;;;13.31;68.99;100378.73;106183;1271;22516;-63
2022/05/13 05:43:02;;;;;;;;;;;;;;;13.40;69.42;100372.84;106160;1271;24270;-63
2022/05/13 05:45:32;;;;;;;;;;;;;;;13.47;69.10;100382.55;105791;1271;24216;-62
2022/05/13 05:48:05;;;;;;;;;;;;;;;13.53;68.60;100387.05;105992;1272;22610;-63
2022/05/13 05:50:35;;;;;;;;;;;;;;;13.60;69.14;100382.27;105768;1271;24404;-62
2022/05/13 05:53:05;;;;;;;;;;;;;;;13.69;68.96;100375.37;105730;1272;22546;-63
2022/05/13 05:58:25;;;;;;;;;;;;;;;13.89;69.07;100374.75;105652;1271;26591;-63
2022/05/13 06:00:56;;;;;;;;;;;;;;;13.98;68.93;100379.62;105810;1271;23811;-63
2022/05/13 06:03:26;;;;;;;;;;;;;;;14.07;68.44;100376.00;105618;1271;24263;-63
2022/05/13 06:06:01;;;;;;;;;;;;;;;14.15;68.21;100379.54;105879;1271;24440;-63
2022/05/13 06:08:31;;;;;;;;;;;;;;;14.24;67.48;100375.42;106223;1271;24314;-63
2022/05/13 06:11:02;;;;;;;;;;;;;;;14.33;67.40;100380.85;105785;1271;24214;-63
2022/05/13 06:13:31;;;;;;;;;;;;;;;14.40;67.35;100379.41;105872;1271;22576;-62
2022/05/13 06:16:01;;;;;;;;;;;;;;;14.45;65.88;100382.56;105757;1271;25407;-63
2022/05/13 06:18:31;;;;;;;;;;;;;;;14.51;66.29;100383.10;105709;1272;22544;-63
2022/05/13 06:21:01;;;;;;;;;;;;;;;14.60;66.17;100376.80;107934;1271;24237;-64
2022/05/13 06:23:30;;;;;;;;;;;;;;;14.75;66.40;100380.88;106820;1271;25517;-63
2022/05/13 06:26:02;;;;;;;;;;;;;;;14.89;65.07;100381.69;105589;1271;23223;-64
2022/05/13 06:28:32;;;;;;;;;;;;;;;15.02;64.92;100383.27;105860;1271;23218;-63
2022/05/13 06:31:01;;;;;;;;;;;;;;;15.18;64.78;100383.37;105858;1271;25501;-65
2022/05/13 06:33:31;;;;;;;;;;;;;;;15.31;63.96;100388.24;105786;1271;25263;-64
2022/05/13 06:36:01;;;;;;;;;;;;;;;15.43;63.75;100389.02;105809;1271;25468;-64
2022/05/13 06:38:31;;;;;;;;;;;;;;;15.56;63.98;100386.27;105640;1271;25364;-64
2022/05/13 06:41:02;;;;;;;;;;;;;;;15.70;63.31;100380.36;105741;1272;25257;-63
2022/05/13 06:43:31;;;;;;;;;;;;;;;15.82;63.53;100381.63;105943;1270;22845;-67
2022/05/13 06:46:02;;;;;;;;;;;;;;;15.98;63.14;100381.17;105806;1271;24442;-65
2022/05/13 06:48:32;;;;;;;;;;;;;;;16.12;62.45;100382.89;105881;1271;22541;-63
2022/05/13 06:51:02;;;;;;;;;;;;;;;16.20;61.94;100378.79;105914;1271;22598;-63
2022/05/13 06:53:32;;;;;;;;;;;;;;;16.30;60.88;100380.61;105866;1274;24374;-64
2022/05/13 06:56:02;;;;;;;;;;;;;;;16.40;60.74;100380.54;105789;1271;22524;-64
2022/05/13 06:58:32;;;;;;;;;;;;;;;16.50;60.34;100379.60;105800;1271;24284;-63
2022/05/13 07:01:02;;;;;;;;;;;;;;;16.57;60.36;100378.58;105670;1271;22629;-64
2022/05/13 07:03:32;;;;;;;;;;;;;;;16.64;60.07;100378.45;105744;1271;22726;-64
2022/05/13 07:06:02;;;;;;;;;;;;;;;16.72;59.87;100374.13;105917;1271;25178;-64
2022/05/13 07:08:32;;;;;;;;;;;;;;;16.80;59.50;100374.48;105692;1271;22516;-63
2022/05/13 07:11:02;;;;;;;;;;;;;;;16.84;59.17;100366.02;105799;1271;22512;-64
2022/05/13 07:13:32;;;;;;;;;;;;;;;16.91;59.18;100364.14;105946;1271;22646;-64
2022/05/13 07:16:04;;;;;;;;;;;;;;;17.03;58.93;100360.59;105745;1271;22680;-64
2022/05/13 07:18:36;;;;;;;;;;;;;;;17.19;58.27;100358.50;105685;1271;25306;-64
2022/05/13 07:21:06;;;;;;;;;;;;;;;17.30;58.09;100358.23;106011;1271;24296;-65
2022/05/13 07:23:36;;;;;;;;;;;;;;;17.44;57.98;100357.67;105815;1271;25431;-64
2022/05/13 07:26:09;;;;;;;;;;;;;;;17.60;57.32;100359.63;105999;1271;25495;-64
2022/05/13 07:28:39;;;;;;;;;;;;;;;17.74;57.02;100354.38;105751;1271;25549;-64
2022/05/13 07:31:10;;;;;;;;;;;;;;;17.88;56.30;100351.14;105764;1274;26161;-64
2022/05/13 07:33:40;;;;;;;;;;;;;;;17.98;56.29;100349.96;105881;1271;22537;-65
2022/05/13 07:36:10;;;;;;;;;;;;;;;18.11;56.15;100351.60;106055;1271;22571;-64
2022/05/13 07:41:16;;;;;;;;;;;;;;;18.23;56.01;100346.16;105989;1271;22608;-64
2022/05/13 07:41:30;;;;;;;;;;;;;;;18.36;54.34;100345.00;105811;1274;22576;-65
2022/05/13 07:44:00;;;;;;;;;;;;;;;18.49;54.12;100342.42;105760;1271;25306;-65
2022/05/13 07:46:30;;;;;;;;;;;;;;;18.62;53.78;100344.11;105868;1271;22532;-67
2022/05/13 07:49:00;;;;;;;;;;;;;;;18.73;52.69;100344.23;106124;1271;22523;-64
2022/05/13 07:51:30;;;;;;;;;;;;;;;18.82;51.91;100342.64;106016;1271;25227;-64
2022/05/13 07:54:00;;;;;;;;;;;;;;;18.87;52.07;100345.10;105894;1271;25403;-65
2022/05/13 07:56:30;;;;;;;;;;;;;;;18.94;51.09;100341.96;105956;1274;25571;-64
2022/05/13 07:59:02;;;;;;;;;;;;;;;19.03;50.74;100339.77;106190;1271;25548;-64
2022/05/13 08:01:32;;;;;;;;;;;;;;;19.21;50.19;100332.54;105829;1271;22538;-65
2022/05/13 08:04:02;;;;;;;;;;;;;;;19.37;49.53;100334.22;105787;1271;24278;-65
2022/05/13 08:06:32;;;;;;;;;;;;;;;19.48;48.61;100331.06;105873;1271;25359;-65
2022/05/13 08:09:02;;;;;;;;;;;;;;;19.52;48.07;100324.16;105963;1271;22888;-66
2022/05/13 08:11:31;;;;;;;;;;;;;;;19.60;47.45;100325.25;105985;1271;25420;-66
2022/05/13 08:14:01;;;;;;;;;;;;;;;19.69;47.32;100321.76;105959;1271;22519;-64
2022/05/13 08:16:33;;;;;;;;;;;;;;;19.77;47.24;100320.95;106039;1271;22513;-64
2022/05/13 08:19:04;;;;;;;;;;;;;;;19.89;46.88;100314.98;105874;1271;22514;-65
2022/05/13 08:21:33;;;;;;;;;;;;;;;20.02;47.13;100311.76;105906;1271;22534;-67
2022/05/13 08:24:04;;;;;;;;;;;;;;;20.17;46.91;100313.69;106173;1271;22592;-65
2022/05/13 08:26:34;;;;;;;;;;;;;;;20.30;46.48;100306.75;105771;1271;22535;-66
2022/05/13 08:29:04;;;;;;;;;;;;;;;20.36;46.07;100306.65;105875;1271;22516;-66
2022/05/13 08:31:34;;;;;;;;;;;;;;;20.43;46.05;100304.97;105980;1271;22531;-65
2022/05/13 08:34:05;;;;;;;;;;;;;;;20.52;45.70;100303.48;106030;1271;24363;-66
2022/05/13 08:36:35;;;;;;;;;;;;;;;20.57;45.01;100298.84;106077;1271;24262;-65
2022/05/13 08:39:05;;;;;;;;;;;;;;;20.63;44.00;100293.70;106217;1271;24382;-65
2022/05/13 08:41:44;;;;;;;;;;;;;;;20.69;44.06;100288.95;106035;1273;24389;-66
2022/05/13 08:44:15;;;;;;;;;;;;;;;20.75;43.83;100285.05;106047;1271;25249;-65
2022/05/13 08:46:48;;;;;;;;;;;;;;;20.83;43.75;100289.05;105972;1271;23377;-66
2022/05/13 08:49:24;;;;;;;;;;;;;;;20.94;43.44;100282.36;105879;1271;22562;-66
2022/05/13 08:52:03;;;;;;;;;;;;;;;21.04;43.39;100280.20;105713;1271;22732;-67
2022/05/13 08:54:35;;;;;;;;;;;;;;;21.14;43.00;100276.86;105843;1271;22530;-66
2022/05/13 08:57:07;;;;;;;;;;;;;;;21.23;42.29;100272.95;106058;1271;24377;-65
2022/05/13 08:59:43;;;;;;;;;;;;;;;21.26;41.82;100270.13;105956;1271;26543;-66
2022/05/13 09:02:18;;;;;;;;;;;;;;;21.31;42.15;100272.11;106044;1274;22508;-66
2022/05/13 09:04:50;;;;;;;;;;;;;;;21.40;42.05;100270.66;106017;1271;22529;-66
2022/05/13 09:07:22;;;;;;;;;;;;;;;21.49;41.46;100264.70;105853;1271;22557;-66
2022/05/13 09:09:54;;;;;;;;;;;;;;;21.57;41.36;100262.43;105869;1271;22597;-71
2022/05/13 09:12:25;;;;;;;;;;;;;;;21.65;41.27;100264.17;105810;1271;22604;-66
2022/05/13 09:14:59;;;;;;;;;;;;;;;21.76;41.44;100257.55;105981;1271;24081;-66
2022/05/13 09:17:33;;;;;;;;;;;;;;;21.87;41.01;100256.45;106190;1274;22469;-66
2022/05/13 09:20:07;;;;;;;;;;;;;;;21.99;40.52;100246.80;105804;1271;22631;-67
2022/05/13 09:22:40;;;;;;;;;;;;;;;22.09;39.68;100244.39;105959;1271;26055;-66
2022/05/13 09:25:15;;;;;;;;;;;;;;;22.17;38.88;100242.66;105903;1271;22701;-66
2022/05/13 09:27:46;;;;;;;;;;;;;;;22.18;38.92;100243.70;106244;1271;22607;-66
2022/05/13 09:30:18;;;;;;;;;;;;;;;22.29;39.05;100236.77;106050;1271;25395;-67
2022/05/13 09:32:49;;;;;;;;;;;;;;;22.43;38.75;100238.89;105857;1271;24312;-67
2022/05/13 09:35:27;;;;;;;;;;;;;;;22.55;38.05;100232.50;106028;1271;22521;-67
2022/05/13 09:37:57;;;;;;;;;;;;;;;22.61;37.88;100227.43;105779;1271;26392;-66
2022/05/13 09:40:28;;;;;;;;;;;;;;;22.62;38.01;100222.58;105956;1271;22518;-67
2022/05/13 09:42:59;;;;;;;;;;;;;;;22.65;37.50;100213.80;106317;1271;22566;-68
2022/05/13 09:45:29;;;;;;;;;;;;;;;22.66;37.24;100211.17;105772;1271;24336;-66
2022/05/13 09:48:17;;;;;;;;;;;;;;;22.67;37.37;100207.84;105977;1271;24390;-67
2022/05/13 09:50:52;;;;;;;;;;;;;;;22.77;37.51;100206.77;105987;1273;25392;-67
2022/05/13 09:53:33;;;;;;;;;;;;;;;22.93;37.68;100202.83;106077;1271;23208;-67
2022/05/13 09:56:03;;;;;;;;;;;;;;;23.13;37.87;100209.46;105971;1271;24317;-67
2022/05/13 09:58:35;;;;;;;;;;;;;;;23.32;37.51;100211.24;106105;1271;25288;-66
2022/05/13 10:01:09;;;;;;;;;;;;;;;23.42;36.96;100206.36;105929;1271;24069;-69
2022/05/13 10:03:39;;;;;;;;;;;;;;;23.44;36.86;100201.23;106068;1271;22549;-68
2022/05/13 10:06:23;;;;;;;;;;;;;;;23.35;36.85;100195.94;106194;1271;26512;-67
2022/05/13 10:08:54;;;;;;;;;;;;;;;23.28;37.31;100192.53;106084;1271;22592;-67
2022/05/13 10:14:27;;;;;;;;;;;;;;;23.24;37.06;100182.14;105978;1271;22535;-67
2022/05/13 10:16:57;;;;;;;;;;;;;;;23.18;36.84;100182.40;106033;1272;23416;-68
2022/05/13 10:19:30;;;;;;;;;;;;;;;23.13;36.83;100176.99;106110;1271;26209;-68
2022/05/13 10:22:06;;;;;;;;;;;;;;;23.14;36.86;100178.66;106177;1270;22512;-67
2022/05/13 10:24:40;;;;;;;;;;;;;;;23.21;37.11;100172.90;106099;1271;24176;-68
2022/05/13 10:27:22;;;;;;;;;;;;;;;23.32;37.25;100164.41;106037;1271;24430;-67
2022/05/13 10:29:54;;;;;;;;;;;;;;;23.51;36.97;100159.95;106052;1271;26504;-67
2022/05/13 10:32:28;;;;;;;;;;;;;;;23.62;36.54;100149.70;105849;1271;22468;-68
2022/05/13 10:35:01;;;;;;;;;;;;;;;23.67;36.49;100139.77;105834;1272;22774;-68
2022/05/13 10:37:34;;;;;;;;;;;;;;;23.79;36.93;100139.81;105895;1271;22534;-68
2022/05/13 10:40:05;;;;;;;;;;;;;;;23.87;36.27;100138.16;105925;1271;24424;-68
2022/05/13 10:42:38;;;;;;;;;;;;;;;23.84;36.35;100132.24;105991;1271;22583;-67
2022/05/13 10:45:11;;;;;;;;;;;;;;;23.84;36.42;100128.36;105933;1271;22555;-68
2022/05/13 10:47:43;;;;;;;;;;;;;;;23.90;36.64;100125.19;105983;1271;22575;-68
2022/05/13 10:50:15;;;;;;;;;;;;;;;24.02;36.69;100121.35;106227;1271;25216;-69
2022/05/13 10:52:52;;;;;;;;;;;;;;;24.12;36.53;100120.09;105890;1271;22612;-68
2022/05/13 10:55:24;;;;;;;;;;;;;;;24.23;36.42;100117.08;105948;1271;22532;-68
2022/05/13 10:58:03;;;;;;;;;;;;;;;24.36;36.19;100122.67;105951;1271;22548;-68
2022/05/13 11:00:35;;;;;;;;;;;;;;;24.44;35.86;100133.66;105964;1271;24248;-68
2022/05/13 11:03:24;;;;;;;;;;;;;;;24.45;35.72;100132.75;105989;1271;25515;-68
2022/05/13 11:06:05;;;;;;;;;;;;;;;24.40;35.63;100138.06;105894;1271;25599;-68
2022/05/13 11:08:42;;;;;;;;;;;;;;;24.41;35.58;100133.65;106057;1271;22539;-68
2022/05/13 11:11:22;;;;;;;;;;;;;;;24.36;35.64;100132.69;105931;1272;22691;-70
2022/05/13 11:13:57;;;;;;;;;;;;;;;24.29;35.68;100134.15;105903;1271;22601;-67
2022/05/13 11:16:34;;;;;;;;;;;;;;;24.19;35.68;100134.97;105786;1271;22552;-68
2022/05/13 11:19:06;;;;;;;;;;;;;;;24.12;35.49;100132.07;106068;1271;22534;-68
2022/05/13 11:21:40;;;;;;;;;;;;;;;24.05;35.57;100133.01;106016;1272;22925;-68
2022/05/13 11:27:18;;;;;;;;;;;;;;;23.85;35.58;100132.23;105844;1271;22973;-68
2022/05/13 11:29:52;;;;;;;;;;;;;;;23.77;35.37;100136.14;106068;1271;23824;-68
2022/05/13 11:32:27;;;;;;;;;;;;;;;23.67;35.31;100121.95;105973;1271;22525;-68
2022/05/13 11:35:05;;;;;;;;;;;;;;;23.57;35.28;100127.40;106044;1271;22741;-68
2022/05/13 11:37:39;;;;;;;;;;;;;;;23.46;35.22;100122.40;106071;1271;25463;-68
2022/05/13 11:40:15;;;;;;;;;;;;;;;23.40;35.80;100115.44;106034;1271;22641;-68
2022/05/13 11:43:19;;;;;;;;;;;;;;;23.41;36.15;100114.66;105956;1271;24001;-68
2022/05/13 11:46:00;;;;;;;;;;;;;;;23.43;35.97;100109.02;105513;1278;25365;-67
2022/05/13 11:48:32;;;;;;;;;;;;;;;23.43;36.36;100104.15;105734;1277;25251;-68
2022/05/13 11:51:07;;;;;;;;;;;;;;;23.45;36.03;100099.98;105507;1279;24205;-68
2022/05/13 11:53:45;;;;;;;;;;;;;;;23.49;36.30;100087.45;105597;1277;22731;-68
2022/05/13 11:56:17;;;;;;;;;;;;;;;23.54;36.53;100077.71;105826;1277;25223;-68
2022/05/13 11:58:51;;;;;;;;;;;;;;;23.56;36.07;100077.02;105659;1278;22514;-68
2022/05/13 12:01:40;;;;;;;;;;;;;;;23.60;36.49;100073.43;105632;1277;25349;-68
2022/05/13 12:04:30;;;;;;;;;;;;;;;23.70;36.43;100080.06;105176;1284;22621;-68
2022/05/13 12:07:02;;;;;;;;;;;;;;;23.73;36.31;100077.89;105313;1284;26519;-67
2022/05/13 12:09:36;;;;;;;;;;;;;;;23.68;35.85;100076.75;105390;1284;22527;-68
2022/05/13 12:12:10;;;;;;;;;;;;;;;23.62;36.02;100076.44;105318;1284;23023;-68
2022/05/13 12:14:51;;;;;;;;;;;;;;;23.58;36.08;100080.77;106053;1283;22608;-68
2022/05/13 12:17:27;;;;;;;;;;;;;;;23.53;36.12;100081.02;105288;1284;22680;-69
2022/05/13 12:20:05;;;;;;;;;;;;;;;23.50;36.22;100073.16;105303;1282;23554;-68
2022/05/13 12:22:48;;;;;;;;;;;;;;;23.56;36.26;100061.59;105437;1278;25446;-68
2022/05/13 12:25:31;;;;;;;;;;;;;;;23.61;36.36;100059.69;105659;1278;23000;-68
2022/05/13 12:28:05;;;;;;;;;;;;;;;23.65;36.48;100055.50;105537;1277;25618;-68
2022/05/13 12:30:35;;;;;;;;;;;;;;;23.70;36.54;100056.62;105665;1277;26657;-68
2022/05/13 12:33:23;;;;;;;;;;;;;;;23.63;36.26;100053.75;105728;1278;26607;-68
2022/05/13 12:39:02;;;;;;;;;;;;;;;23.67;36.57;100049.66;105492;1277;25482;-68
2022/05/13 12:41:53;;;;;;;;;;;;;;;23.66;36.46;100050.48;105632;1272;25314;-68
2022/05/13 12:44:37;;;;;;;;;;;;;;;23.62;36.62;100054.33;106057;1271;22512;-68
2022/05/13 12:47:20;;;;;;;;;;;;;;;23.56;36.49;100048.38;105709;1271;22686;-68
2022/05/13 12:49:58;;;;;;;;;;;;;;;23.48;36.19;100043.23;105833;1271;25471;-67
2022/05/13 12:52:36;;;;;;;;;;;;;;;23.43;36.59;100037.96;105888;1271;22547;-68
2022/05/13 12:55:10;;;;;;;;;;;;;;;23.42;36.54;100039.67;106208;1271;25377;-68
2022/05/13 12:57:42;;;;;;;;;;;;;;;23.46;36.95;100041.64;106047;1271;24252;-68
2022/05/13 13:00:18;;;;;;;;;;;;;;;23.53;36.72;100047.36;106003;1271;25424;-68
2022/05/13 13:02:50;;;;;;;;;;;;;;;23.48;36.35;100047.41;105801;1271;25313;-67
2022/05/13 13:05:23;;;;;;;;;;;;;;;23.41;36.89;100048.19;105789;1271;22531;-68
2022/05/13 13:07:56;;;;;;;;;;;;;;;23.43;37.02;100049.37;105770;1271;24360;-68
2022/05/13 13:10:27;;;;;;;;;;;;;;;23.43;37.01;100047.98;106066;1271;25579;-67
2022/05/13 13:13:01;;;;;;;;;;;;;;;23.38;36.78;100045.73;105895;1271;23181;-68
2022/05/13 13:15:36;;;;;;;;;;;;;;;23.31;36.81;100043.98;105914;1272;22505;-69
2022/05/13 13:18:08;;;;;;;;;;;;;;;23.28;37.39;100042.67;106040;1271;25343;-67